Latest Weather Observations for Gosford

IDN60901

Issued at 11:21 pm EST Friday 30 September 2016 (issued every 10 minutes, with the page automatically refreshed every 10 minutes)

About weather observations | Map of Sydney area stations | Latest observations for Sydney area | Other Formats
Station Details ID: 061425 Name: GOSFORD AWS Lat: -33.44 Lon: 151.36 Height: 7.0 m
Data from the previous 72 hours. | See also: Recent months at Gosford
Date/Time
EST
Temp
°C
App
Temp
°C
Dew
Point
°C
Rel
Hum
%
Delta-T
°C
Wind Press
QNH
hPa
Press
MSL
hPa
Rain since
9am
mm
Dir  Spd
km/h
Gust
km/h
Spd
kts
Gust
kts
30/11:00pm 13.0 11.0 6.1 63 3.3 N 6 13 3 7 - - 0.0
30/10:30pm 13.3 10.7 6.2 62 3.4 NNW 9 24 5 13 - - 0.0
30/10:00pm 13.2 11.1 5.9 61 3.4 NNW 6 13 3 7 - - 0.0
30/09:30pm 13.4 10.7 5.8 60 3.6 NNW 9 17 5 9 - - 0.0
30/09:00pm 13.4 10.7 5.8 60 3.6 NNW 9 17 5 9 - - 0.0
30/08:30pm 13.6 10.9 5.7 59 3.7 NNW 9 17 5 9 - - 0.0
30/08:00pm 13.9 11.2 5.8 58 3.8 NNW 9 19 5 10 - - 0.0
30/07:30pm 14.0 11.4 5.9 58 3.8 NNW 9 22 5 12 - - 0.0
30/07:00pm 13.6 11.8 5.5 58 3.8 NNW 4 11 2 6 - - 0.0
30/06:30pm 13.9 11.1 5.3 56 4.0 NNW 9 17 5 9 - - 0.0
30/06:00pm 14.3 11.5 5.1 54 4.3 NW 9 20 5 11 - - 0.0
30/05:30pm 14.7 10.7 5.0 52 4.5 NW 15 32 8 17 - - 0.0
30/05:00pm 15.3 10.5 4.7 49 5.0 NW 19 33 10 18 - - 0.0
30/04:37pm 15.4 8.9 4.5 48 5.1 WNW 28 48 15 26 - - 0.0
30/04:30pm 15.5 10.6 4.3 47 5.2 WNW 19 37 10 20 - - 0.0
30/04:00pm 15.8 8.8 4.2 46 5.4 WNW 30 50 16 27 - - 0.0
30/03:38pm 15.9 9.3 4.3 46 5.4 WNW 28 54 15 29 - - 0.0
30/03:30pm 16.4 11.7 5.1 47 5.4 NW 19 39 10 21 - - 0.0
30/03:00pm 15.9 10.2 4.9 48 5.2 NW 24 39 13 21 - - 0.0
30/02:30pm 16.2 9.7 4.6 46 5.5 WNW 28 52 15 28 - - 0.0
30/02:00pm 15.9 9.0 4.6 47 5.3 NW 30 50 16 27 - - 0.0
30/01:40pm 16.3 9.4 4.4 45 5.6 NW 30 57 16 31 - - 0.0
30/01:30pm 16.3 11.0 5.0 47 5.4 WNW 22 43 12 23 - - 0.0
30/01:04pm 16.8 10.4 5.1 46 5.6 NW 28 59 15 32 - - 0.0
30/01:00pm 17.1 11.6 6.0 48 5.4 NW 24 43 13 23 - - 0.0
30/12:30pm 16.9 10.1 4.9 45 5.7 WNW 30 56 16 30 - - 0.0
30/12:25pm 16.7 10.6 5.0 46 5.6 WNW 26 46 14 25 - - 0.0
30/12:00pm 17.6 13.4 5.5 45 5.9 NW 17 35 9 19 - - 0.0
30/11:30am 17.5 12.5 4.8 43 6.1 NW 20 35 11 19 - - 0.0
30/11:00am 17.4 11.6 4.4 42 6.1 NW 24 43 13 23 - - 0.0
30/10:30am 17.3 12.9 4.9 44 5.9 NNW 17 26 9 14 - - 0.0
30/10:00am 17.3 12.5 4.6 43 6.0 NW 19 35 10 19 - - 0.0
30/09:30am 17.2 13.3 5.2 45 5.8 NW 15 32 8 17 - - 0.0
30/09:00am 16.1 12.9 5.1 48 5.2 NNW 11 26 6 14 - - 1.2
30/08:30am 15.2 12.6 4.3 48 5.1 NNE 7 22 4 12 - - 1.2
30/08:00am 15.0 12.0 4.1 48 5.0 NNE 9 22 5 12 - - 1.2
30/07:30am 14.6 12.1 4.0 49 4.9 NNE 6 13 3 7 - - 1.2
30/07:00am 13.8 11.6 3.6 50 4.6 N 4 7 2 4 - - 1.2
30/06:30am 13.1 10.3 3.2 51 4.4 NE 7 13 4 7 - - 1.2
30/06:00am 11.9 8.7 3.2 55 3.8 NNE 9 20 5 11 - - 1.2
30/05:30am 11.4 8.7 2.9 56 3.7 NE 6 11 3 6 - - 1.2
30/05:00am 12.1 9.2 2.8 53 4.1 NNE 7 15 4 8 - - 1.2
30/04:30am 10.9 8.3 3.2 59 3.4 NE 6 7 3 4 - - 1.2
30/04:00am 12.4 9.6 2.3 50 4.4 NE 6 9 3 5 - - 1.2
30/03:30am 12.8 10.8 2.4 49 4.5 NE 2 6 1 3 - - 1.2
30/03:00am 13.6 10.2 1.9 45 5.1 NW 9 17 5 9 - - 1.2
30/02:30am 13.9 10.1 1.9 44 5.2 NW 11 19 6 10 - - 1.2
30/02:00am 13.8 10.5 2.4 46 5.0 NNW 9 13 5 7 - - 1.2
30/01:30am 14.0 11.6 2.0 44 5.2 NNW 4 11 2 6 - - 1.2
30/01:00am 14.8 11.4 2.0 42 5.6 WNW 9 20 5 11 - - 1.2
30/12:30am 14.8 10.4 2.7 44 5.4 WNW 15 26 8 14 - - 1.2
30/12:00am 14.8 11.3 3.3 46 5.2 WNW 11 26 6 14 - - 1.2
 
Date/Time
EST
Temp
°C
App
Temp
°C
Dew
Point
°C
Rel
Hum
%
Delta-T
°C
Wind Press
QNH
hPa
Press
MSL
hPa
Rain since
9am
mm
Dir  Spd
km/h
Gust
km/h
Spd
kts
Gust
kts
29/11:30pm 15.1 11.6 3.6 46 5.2 NW 11 22 6 12 - - 1.2
29/11:00pm 15.2 11.4 4.0 47 5.2 WNW 13 26 7 14 - - 1.2
29/10:30pm 15.3 11.2 4.1 47 5.2 WNW 15 24 8 13 - - 1.2
29/10:00pm 16.1 10.6 4.2 45 5.5 WNW 22 35 12 19 - - 1.2
29/09:50pm 16.3 11.8 4.4 45 5.6 WNW 17 44 9 24 - - 1.2
29/09:30pm 15.7 12.5 5.3 50 4.9 WNW 11 20 6 11 - - 1.2
29/09:00pm 14.6 13.0 6.2 57 4.0 N 4 9 2 5 - - 1.2
29/08:30pm 15.6 13.5 5.8 52 4.7 NNW 6 13 3 7 - - 1.2
29/08:00pm 15.9 13.2 5.5 50 5.0 NNW 9 15 5 8 - - 1.2
29/07:30pm 16.7 14.3 5.3 47 5.5 NNW 7 19 4 10 - - 1.2
29/07:00pm 17.3 14.1 4.9 44 5.9 NNW 11 22 6 12 - - 1.2
29/06:30pm 18.3 14.9 4.1 39 6.7 NW 11 24 6 13 - - 1.2
29/06:00pm 18.8 13.6 2.6 34 7.5 WNW 19 43 10 23 - - 1.2
29/05:30pm 19.6 15.2 4.9 38 7.1 NW 17 35 9 19 - - 1.2
29/05:00pm 19.9 17.0 8.3 47 6.0 NW 13 26 7 14 - - 1.2
29/04:30pm 20.3 18.7 10.1 52 5.5 N 9 20 5 11 - - 1.2
29/04:00pm 20.1 19.1 13.3 65 3.9 N 11 20 6 11 - - 1.2
29/03:30pm 20.3 19.9 14.2 68 3.5 NNE 9 15 5 8 - - 1.2
29/03:00pm 20.6 17.7 12.3 59 4.7 NNW 19 35 10 19 - - 1.2
29/02:30pm 20.8 20.2 13.5 63 4.2 NNE 9 19 5 10 - - 1.2
29/02:00pm 20.8 19.8 14.7 68 3.6 N 13 26 7 14 - - 1.2
29/01:30pm 19.7 18.7 14.7 73 2.9 N 13 24 7 13 - - 1.2
29/01:00pm 18.3 18.1 14.6 79 2.1 NE 9 17 5 9 - - 1.2
29/12:30pm 16.7 16.8 14.0 84 1.5 NNE 6 7 3 4 - - 1.2
29/12:00pm 17.4 16.3 11.9 70 3.0 N 9 24 5 13 - - 0.2
29/11:30am 16.6 15.8 11.7 73 2.7 NE 7 13 4 7 - - 0.2
29/11:00am 15.9 15.1 11.7 76 2.3 NE 7 15 4 8 - - 0.2
29/10:30am 14.8 13.6 10.4 75 2.3 NNE 7 15 4 8 - - 0.0
29/10:00am 14.6 12.9 10.0 74 2.4 NNE 9 19 5 10 - - 0.0
29/09:30am 14.5 12.8 9.9 74 2.4 N 9 19 5 10 - - 0.0
29/09:00am 14.8 12.7 9.8 72 2.6 NNE 11 20 6 11 - - 0.4
29/08:30am 13.9 12.3 10.3 79 1.9 NNE 9 15 5 8 - - 0.4
29/08:00am 13.9 12.2 9.9 77 2.1 N 9 19 5 10 - - 0.2
29/07:30am 14.7 13.4 9.3 70 2.8 N 6 15 3 8 - - 0.0
29/07:00am 14.3 11.3 9.1 71 2.6 N 15 26 8 14 - - 0.0
29/06:30am 14.6 12.7 9.0 69 2.9 NNE 9 22 5 12 - - 0.0
29/06:00am 14.4 12.5 9.2 71 2.7 NNE 9 17 5 9 - - 0.0
29/05:30am 14.3 12.1 9.5 73 2.5 N 11 20 6 11 - - 0.0
29/05:00am 14.2 12.5 10.0 76 2.2 NNE 9 15 5 8 - - 0.0
29/04:30am 14.4 12.7 9.8 74 2.4 NNE 9 19 5 10 - - 0.0
29/04:00am 14.5 12.4 9.9 74 2.4 NNE 11 24 6 13 - - 0.0
29/03:30am 14.1 12.9 10.3 78 2.0 NE 7 19 4 10 - - 0.0
29/03:00am 13.8 12.8 10.4 80 1.8 NNE 6 9 3 5 - - 0.0
29/02:30am 14.5 13.5 10.9 79 1.9 N 7 15 4 8 - - 0.0
29/02:00am 14.7 13.7 10.9 78 2.0 N 7 15 4 8 - - 0.0
29/01:30am 15.2 13.4 11.0 76 2.2 NNE 11 20 6 11 - - 0.0
29/01:00am 14.7 13.7 10.9 78 2.0 NNE 7 13 4 7 - - 0.0
29/12:30am 15.1 13.7 10.9 76 2.2 NNE 9 17 5 9 - - 0.0
29/12:00am 15.2 14.1 10.8 75 2.3 NNE 7 13 4 7 - - 0.0
 
Date/Time
EST
Temp
°C
App
Temp
°C
Dew
Point
°C
Rel
Hum
%
Delta-T
°C
Wind Press
QNH
hPa
Press
MSL
hPa
Rain since
9am
mm
Dir  Spd
km/h
Gust
km/h
Spd
kts
Gust
kts
28/11:30pm 14.9 13.7 10.3 74 2.4 NNE 7 15 4 8 - - 0.0
28/11:00pm 14.8 13.4 9.6 71 2.7 NNE 7 13 4 7 - - 0.0
28/10:30pm 14.6 13.4 9.6 72 2.6 N 6 11 3 6 - - 0.0
28/10:00pm 13.0 11.6 8.9 76 2.1 NNE 6 9 3 5 - - 0.0
28/09:30pm 11.7 10.7 8.7 82 1.5 NNE 4 7 2 4 - - 0.0
28/09:00pm 11.4 10.3 8.4 82 1.5 NNE 4 6 2 3 - - 0.0
28/08:30pm 11.6 11.2 8.3 80 1.6 CALM 0 0 0 0 - - 0.0
28/08:00pm 11.9 11.5 8.2 78 1.8 CALM 0 0 0 0 - - 0.0
28/07:30pm 12.4 11.9 7.9 74 2.2 CALM 0 0 0 0 - - 0.0
28/07:00pm 13.4 12.2 8.0 70 2.7 E 4 4 2 2 - - 0.0
28/06:30pm 15.1 13.7 7.4 60 3.8 NE 4 7 2 4 - - 0.0
28/06:00pm 15.9 14.4 6.9 55 4.4 NNE 4 6 2 3 - - 0.0
28/05:30pm 17.4 15.3 6.6 49 5.3 ENE 7 13 4 7 - - 0.0
28/05:00pm 17.9 14.5 6.1 46 5.8 ENE 13 19 7 10 - - 0.0
28/04:30pm 18.3 15.3 6.2 45 6.0 E 11 15 6 8 - - 0.0
28/04:00pm 18.4 15.3 5.6 43 6.2 ENE 11 17 6 9 - - 0.0
28/03:30pm 18.7 15.6 5.5 42 6.4 ENE 11 19 6 10 - - 0.0
28/03:00pm 18.9 16.2 5.7 42 6.5 E 9 17 5 9 - - 0.0
28/02:30pm 18.8 16.1 5.6 42 6.5 E 9 17 5 9 - - 0.0
28/02:00pm 19.6 16.8 7.0 44 6.4 ESE 11 17 6 9 - - 0.0
28/01:30pm 19.6 17.3 7.4 45 6.2 E 9 19 5 10 - - 0.0
28/01:00pm 19.0 16.5 6.5 44 6.2 ESE 9 17 5 9 - - 0.0
28/12:30pm 19.0 16.1 4.7 39 6.9 S 9 13 5 7 - - 0.0
28/12:00pm 18.9 16.2 5.4 41 6.6 SSW 9 13 5 7 - - 0.0
28/11:30am 18.3 15.6 5.5 43 6.2 SW 9 13 5 7 - - 0.0
28/11:00am 18.1 15.9 6.0 45 5.9 SSW 7 11 4 6 - - 0.0
28/10:30am 18.1 16.0 6.0 45 5.9 SSW 6 9 3 5 - - 0.0
28/10:00am 17.3 15.2 5.6 46 5.7 S 6 13 3 7 - - 0.0
28/09:30am 16.5 13.8 5.8 49 5.2 SW 9 15 5 8 - - 0.0
28/09:00am 15.6 12.7 4.9 49 5.0 SW 9 13 5 7 - - 0.0
28/08:30am 15.0 11.8 5.2 52 4.6 WSW 11 19 6 10 - - 0.0
28/08:00am 14.3 11.4 4.6 52 4.5 WSW 9 15 5 8 - - 0.0
28/07:30am 13.3 10.1 5.0 57 3.8 W 11 15 6 8 - - 0.0
28/07:00am 12.6 10.1 4.6 58 3.7 W 7 11 4 6 - - 0.0
28/06:30am 11.2 8.8 4.4 63 3.1 W 6 7 3 4 - - 0.0
28/06:00am 9.8 7.1 3.5 65 2.7 W 7 9 4 5 - - 0.0
28/05:30am 9.3 6.6 3.7 68 2.4 NW 7 9 4 5 - - 0.0
28/05:00am 10.2 7.7 3.5 63 2.9 WSW 6 11 3 6 - - 0.0
28/04:30am 10.1 7.5 3.2 62 3.0 W 6 9 3 5 - - 0.0
28/04:00am 9.6 7.4 3.6 66 2.6 WNW 4 9 2 5 - - 0.0
28/03:30am 9.9 7.7 3.2 63 2.9 W 4 6 2 3 - - 0.0
28/03:00am 9.9 7.7 3.4 64 2.8 WNW 4 7 2 4 - - 0.0
28/02:30am 9.2 7.4 3.6 68 2.4 W 2 4 1 2 - - 0.0
28/02:00am 9.8 8.0 3.3 64 2.8 WNW 2 6 1 3 - - 0.0
28/01:30am 9.8 7.6 3.5 65 2.7 WNW 4 9 2 5 - - 0.0
28/01:00am 10.3 7.6 3.6 63 2.9 WNW 7 9 4 5 - - 0.0
28/12:30am 10.5 8.0 3.5 62 3.1 NW 6 7 3 4 - - 0.0
28/12:00am 11.2 9.0 3.5 59 3.4 NW 4 6 2 3 - - 0.0
 
Date/Time
EST
Temp
°C
App
Temp
°C
Dew
Point
°C
Rel
Hum
%
Delta-T
°C
Wind Press
QNH
hPa
Press
MSL
hPa
Rain since
9am
mm
Dir  Spd
km/h
Gust
km/h
Spd
kts
Gust
kts
27/11:30pm 11.5 9.6 3.0 56 3.7 WNW 2 2 1 1 - - 0.0

Latest Capital City Observations: Canberra | Sydney | Melbourne | Brisbane | Adelaide | Perth | Hobart | Darwin

Other Formats:

Comma delimited format used in spreadsheet applications
http://www.bom.gov.au/fwo/IDN60901/IDN60901.94782.axf

JavaScript Object Notation format (JSON) in row-major order
http://www.bom.gov.au/fwo/IDN60901/IDN60901.94782.json